sensor_id;sensor_type;location;lat;lon;timestamp;temperature;humidity
27633;DHT22;15046;50.930;13.334;2024-02-26T00:01:58;2.40;98.20
27633;DHT22;15046;50.930;13.334;2024-02-26T00:04:24;2.30;98.50
27633;DHT22;15046;50.930;13.334;2024-02-26T00:06:50;2.20;99.10
27633;DHT22;15046;50.930;13.334;2024-02-26T00:09:16;2.10;99.70
27633;DHT22;15046;50.930;13.334;2024-02-26T00:11:42;2.20;99.90
27633;DHT22;15046;50.930;13.334;2024-02-26T00:14:08;2.20;99.90
27633;DHT22;15046;50.930;13.334;2024-02-26T00:16:34;2.20;99.90
27633;DHT22;15046;50.930;13.334;2024-02-26T00:18:59;2.20;99.90
27633;DHT22;15046;50.930;13.334;2024-02-26T00:21:25;2.20;99.90
27633;DHT22;15046;50.930;13.334;2024-02-26T00:23:52;2.10;99.90
27633;DHT22;15046;50.930;13.334;2024-02-26T00:26:18;2.10;99.90
27633;DHT22;15046;50.930;13.334;2024-02-26T00:28:44;2.10;99.90
27633;DHT22;15046;50.930;13.334;2024-02-26T00:31:10;2.00;99.90
27633;DHT22;15046;50.930;13.334;2024-02-26T00:33:37;2.00;99.90
27633;DHT22;15046;50.930;13.334;2024-02-26T00:36:03;2.00;99.90
27633;DHT22;15046;50.930;13.334;2024-02-26T00:38:29;1.90;99.90
27633;DHT22;15046;50.930;13.334;2024-02-26T00:40:55;1.90;99.90
27633;DHT22;15046;50.930;13.334;2024-02-26T00:43:20;1.90;99.90
27633;DHT22;15046;50.930;13.334;2024-02-26T00:45:46;1.90;99.90
27633;DHT22;15046;50.930;13.334;2024-02-26T00:48:12;1.90;99.90
27633;DHT22;15046;50.930;13.334;2024-02-26T00:50:39;1.80;99.90
27633;DHT22;15046;50.930;13.334;2024-02-26T00:53:05;1.80;99.90
27633;DHT22;15046;50.930;13.334;2024-02-26T00:55:31;1.80;99.90
27633;DHT22;15046;50.930;13.334;2024-02-26T00:57:57;1.70;99.90
27633;DHT22;15046;50.930;13.334;2024-02-26T01:00:23;1.60;99.90
27633;DHT22;15046;50.930;13.334;2024-02-26T01:02:48;1.60;99.90
27633;DHT22;15046;50.930;13.334;2024-02-26T01:05:14;1.60;99.90
27633;DHT22;15046;50.930;13.334;2024-02-26T01:07:42;1.60;99.90
27633;DHT22;15046;50.930;13.334;2024-02-26T01:10:07;1.60;99.90
27633;DHT22;15046;50.930;13.334;2024-02-26T01:12:34;1.60;99.90
27633;DHT22;15046;50.930;13.334;2024-02-26T01:15:01;1.60;99.90
27633;DHT22;15046;50.930;13.334;2024-02-26T01:17:28;1.50;99.90
27633;DHT22;15046;50.930;13.334;2024-02-26T01:19:54;1.50;99.90
27633;DHT22;15046;50.930;13.334;2024-02-26T01:22:20;1.40;99.90
27633;DHT22;15046;50.930;13.334;2024-02-26T01:24:46;1.40;99.90
27633;DHT22;15046;50.930;13.334;2024-02-26T01:27:11;1.40;99.90
27633;DHT22;15046;50.930;13.334;2024-02-26T01:29:38;1.30;99.90
27633;DHT22;15046;50.930;13.334;2024-02-26T01:32:04;1.30;99.90
27633;DHT22;15046;50.930;13.334;2024-02-26T01:34:31;1.30;99.90
27633;DHT22;15046;50.930;13.334;2024-02-26T01:36:57;1.30;99.90
27633;DHT22;15046;50.930;13.334;2024-02-26T01:39:23;1.30;99.90
27633;DHT22;15046;50.930;13.334;2024-02-26T01:41:48;1.20;99.90
27633;DHT22;15046;50.930;13.334;2024-02-26T01:44:14;1.20;99.90
27633;DHT22;15046;50.930;13.334;2024-02-26T01:46:40;1.10;99.90
27633;DHT22;15046;50.930;13.334;2024-02-26T01:49:07;1.10;99.90
27633;DHT22;15046;50.930;13.334;2024-02-26T01:51:35;1.10;99.90
27633;DHT22;15046;50.930;13.334;2024-02-26T01:54:02;1.10;99.90
27633;DHT22;15046;50.930;13.334;2024-02-26T01:56:29;1.10;99.90
27633;DHT22;15046;50.930;13.334;2024-02-26T01:58:58;1.00;99.90
27633;DHT22;15046;50.930;13.334;2024-02-26T02:01:29;1.00;99.90
27633;DHT22;15046;50.930;13.334;2024-02-26T02:03:58;1.00;99.90
27633;DHT22;15046;50.930;13.334;2024-02-26T02:06:24;1.00;99.90
27633;DHT22;15046;50.930;13.334;2024-02-26T02:08:50;1.00;99.90
27633;DHT22;15046;50.930;13.334;2024-02-26T02:11:17;1.00;99.90
27633;DHT22;15046;50.930;13.334;2024-02-26T02:13:42;1.00;99.90
27633;DHT22;15046;50.930;13.334;2024-02-26T02:16:09;1.00;99.90
27633;DHT22;15046;50.930;13.334;2024-02-26T02:18:34;0.90;99.90
27633;DHT22;15046;50.930;13.334;2024-02-26T02:21:01;0.90;99.90
27633;DHT22;15046;50.930;13.334;2024-02-26T02:23:27;0.90;99.90
27633;DHT22;15046;50.930;13.334;2024-02-26T02:25:54;0.90;99.90
27633;DHT22;15046;50.930;13.334;2024-02-26T02:28:23;0.90;99.90
27633;DHT22;15046;50.930;13.334;2024-02-26T02:30:50;0.90;99.90
27633;DHT22;15046;50.930;13.334;2024-02-26T02:35:44;0.80;99.90
27633;DHT22;15046;50.930;13.334;2024-02-26T02:38:10;0.90;99.90
27633;DHT22;15046;50.930;13.334;2024-02-26T02:40:35;0.80;99.90
27633;DHT22;15046;50.930;13.334;2024-02-26T02:43:02;0.80;99.90
27633;DHT22;15046;50.930;13.334;2024-02-26T02:45:28;0.80;99.90
27633;DHT22;15046;50.930;13.334;2024-02-26T02:47:54;0.80;99.90
27633;DHT22;15046;50.930;13.334;2024-02-26T02:50:20;0.80;99.90
27633;DHT22;15046;50.930;13.334;2024-02-26T02:52:45;0.80;99.90
27633;DHT22;15046;50.930;13.334;2024-02-26T02:55:12;0.80;99.90
27633;DHT22;15046;50.930;13.334;2024-02-26T02:57:38;0.70;99.90
27633;DHT22;15046;50.930;13.334;2024-02-26T03:00:10;0.70;99.90
27633;DHT22;15046;50.930;13.334;2024-02-26T03:02:36;0.70;99.90
27633;DHT22;15046;50.930;13.334;2024-02-26T03:05:03;0.60;99.90
27633;DHT22;15046;50.930;13.334;2024-02-26T03:07:29;0.60;99.90
27633;DHT22;15046;50.930;13.334;2024-02-26T03:09:55;0.70;99.90
27633;DHT22;15046;50.930;13.334;2024-02-26T03:12:21;0.60;99.90
27633;DHT22;15046;50.930;13.334;2024-02-26T03:14:47;0.60;99.90
27633;DHT22;15046;50.930;13.334;2024-02-26T03:17:13;0.60;99.90
27633;DHT22;15046;50.930;13.334;2024-02-26T03:19:39;0.70;99.90
27633;DHT22;15046;50.930;13.334;2024-02-26T03:22:05;0.60;99.90
27633;DHT22;15046;50.930;13.334;2024-02-26T03:24:30;0.60;99.90
27633;DHT22;15046;50.930;13.334;2024-02-26T03:26:56;0.60;99.90
27633;DHT22;15046;50.930;13.334;2024-02-26T03:29:22;0.50;99.90
27633;DHT22;15046;50.930;13.334;2024-02-26T03:31:48;0.50;99.90
27633;DHT22;15046;50.930;13.334;2024-02-26T03:34:14;0.40;99.90
27633;DHT22;15046;50.930;13.334;2024-02-26T03:36:41;0.40;99.90
27633;DHT22;15046;50.930;13.334;2024-02-26T03:39:07;0.40;99.90
27633;DHT22;15046;50.930;13.334;2024-02-26T03:41:36;0.40;99.90
27633;DHT22;15046;50.930;13.334;2024-02-26T03:44:02;0.40;99.90
27633;DHT22;15046;50.930;13.334;2024-02-26T03:46:28;0.30;99.90
27633;DHT22;15046;50.930;13.334;2024-02-26T03:48:54;0.30;99.90
27633;DHT22;15046;50.930;13.334;2024-02-26T03:51:20;0.30;99.90
27633;DHT22;15046;50.930;13.334;2024-02-26T03:53:46;0.30;99.90
27633;DHT22;15046;50.930;13.334;2024-02-26T03:56:12;0.30;99.90
27633;DHT22;15046;50.930;13.334;2024-02-26T03:58:40;0.20;99.90
27633;DHT22;15046;50.930;13.334;2024-02-26T04:01:09;0.20;99.90
27633;DHT22;15046;50.930;13.334;2024-02-26T04:03:35;0.20;99.90
27633;DHT22;15046;50.930;13.334;2024-02-26T04:06:02;0.20;99.90
27633;DHT22;15046;50.930;13.334;2024-02-26T04:08:28;0.10;99.90
27633;DHT22;15046;50.930;13.334;2024-02-26T04:10:54;0.10;99.90
27633;DHT22;15046;50.930;13.334;2024-02-26T04:13:19;0.10;99.90
27633;DHT22;15046;50.930;13.334;2024-02-26T04:15:45;0.10;99.90
27633;DHT22;15046;50.930;13.334;2024-02-26T04:18:12;0.00;99.90
27633;DHT22;15046;50.930;13.334;2024-02-26T04:20:39;0.00;99.90
27633;DHT22;15046;50.930;13.334;2024-02-26T04:23:07;0.00;99.90
27633;DHT22;15046;50.930;13.334;2024-02-26T04:25:33;0.00;99.90
27633;DHT22;15046;50.930;13.334;2024-02-26T04:27:59;0.00;99.90
27633;DHT22;15046;50.930;13.334;2024-02-26T04:30:25;-0.10;99.90
27633;DHT22;15046;50.930;13.334;2024-02-26T04:32:51;-0.10;99.90
27633;DHT22;15046;50.930;13.334;2024-02-26T04:35:17;-0.10;99.90
27633;DHT22;15046;50.930;13.334;2024-02-26T04:37:43;-0.10;99.90
27633;DHT22;15046;50.930;13.334;2024-02-26T04:40:09;-0.10;99.90
27633;DHT22;15046;50.930;13.334;2024-02-26T04:42:35;-0.10;99.90
27633;DHT22;15046;50.930;13.334;2024-02-26T04:45:01;-0.10;99.90
27633;DHT22;15046;50.930;13.334;2024-02-26T04:47:27;-0.10;99.90
27633;DHT22;15046;50.930;13.334;2024-02-26T04:49:52;-0.10;99.90
27633;DHT22;15046;50.930;13.334;2024-02-26T04:52:18;-0.10;99.90
27633;DHT22;15046;50.930;13.334;2024-02-26T04:54:44;-0.10;99.90
27633;DHT22;15046;50.930;13.334;2024-02-26T04:57:10;-0.10;99.90
27633;DHT22;15046;50.930;13.334;2024-02-26T04:59:36;-0.10;99.90
27633;DHT22;15046;50.930;13.334;2024-02-26T05:02:02;0.00;99.90
27633;DHT22;15046;50.930;13.334;2024-02-26T05:04:28;0.00;99.90
27633;DHT22;15046;50.930;13.334;2024-02-26T05:06:54;-0.10;99.90
27633;DHT22;15046;50.930;13.334;2024-02-26T05:09:20;-0.10;99.90
27633;DHT22;15046;50.930;13.334;2024-02-26T05:11:46;-0.10;99.90
27633;DHT22;15046;50.930;13.334;2024-02-26T05:14:11;-0.10;99.90
27633;DHT22;15046;50.930;13.334;2024-02-26T05:16:37;-0.10;99.90
27633;DHT22;15046;50.930;13.334;2024-02-26T05:19:03;-0.10;99.90
27633;DHT22;15046;50.930;13.334;2024-02-26T05:21:29;-0.10;99.90
27633;DHT22;15046;50.930;13.334;2024-02-26T05:23:54;-0.20;99.90
27633;DHT22;15046;50.930;13.334;2024-02-26T05:26:21;-0.20;99.90
27633;DHT22;15046;50.930;13.334;2024-02-26T05:28:47;-0.20;99.90
27633;DHT22;15046;50.930;13.334;2024-02-26T05:31:13;-0.20;99.90
27633;DHT22;15046;50.930;13.334;2024-02-26T05:33:39;-0.20;99.90
27633;DHT22;15046;50.930;13.334;2024-02-26T05:36:06;-0.20;99.90
27633;DHT22;15046;50.930;13.334;2024-02-26T05:38:32;-0.30;99.90
27633;DHT22;15046;50.930;13.334;2024-02-26T05:40:58;-0.30;99.90
27633;DHT22;15046;50.930;13.334;2024-02-26T05:43:25;-0.30;99.90
27633;DHT22;15046;50.930;13.334;2024-02-26T05:45:51;-0.30;99.90
27633;DHT22;15046;50.930;13.334;2024-02-26T05:48:17;-0.30;99.90
27633;DHT22;15046;50.930;13.334;2024-02-26T05:50:45;-0.30;99.90
27633;DHT22;15046;50.930;13.334;2024-02-26T05:53:11;-0.30;99.90
27633;DHT22;15046;50.930;13.334;2024-02-26T05:55:37;-0.30;99.90
27633;DHT22;15046;50.930;13.334;2024-02-26T05:58:03;-0.30;99.90
27633;DHT22;15046;50.930;13.334;2024-02-26T06:00:29;-0.40;99.90
27633;DHT22;15046;50.930;13.334;2024-02-26T06:02:55;-0.40;99.90
27633;DHT22;15046;50.930;13.334;2024-02-26T06:05:21;-0.40;99.90
27633;DHT22;15046;50.930;13.334;2024-02-26T06:07:47;-0.40;99.90
27633;DHT22;15046;50.930;13.334;2024-02-26T06:10:13;-0.40;99.90
27633;DHT22;15046;50.930;13.334;2024-02-26T06:12:41;-0.30;99.90
27633;DHT22;15046;50.930;13.334;2024-02-26T06:15:07;-0.30;99.90
27633;DHT22;15046;50.930;13.334;2024-02-26T06:17:34;-0.30;99.90
27633;DHT22;15046;50.930;13.334;2024-02-26T06:20:01;-0.30;99.90
27633;DHT22;15046;50.930;13.334;2024-02-26T06:22:26;-0.30;99.90
27633;DHT22;15046;50.930;13.334;2024-02-26T06:24:52;-0.30;99.90
27633;DHT22;15046;50.930;13.334;2024-02-26T06:27:18;-0.20;99.90
27633;DHT22;15046;50.930;13.334;2024-02-26T06:29:44;-0.20;99.90
27633;DHT22;15046;50.930;13.334;2024-02-26T06:32:10;-0.10;99.90
27633;DHT22;15046;50.930;13.334;2024-02-26T06:34:36;-0.10;99.90
27633;DHT22;15046;50.930;13.334;2024-02-26T06:37:03;0.00;99.90
27633;DHT22;15046;50.930;13.334;2024-02-26T06:39:29;0.10;99.90
27633;DHT22;15046;50.930;13.334;2024-02-26T06:41:55;0.20;99.90
27633;DHT22;15046;50.930;13.334;2024-02-26T06:44:26;0.40;99.90
27633;DHT22;15046;50.930;13.334;2024-02-26T06:47:00;0.50;99.90
27633;DHT22;15046;50.930;13.334;2024-02-26T06:49:26;0.70;99.90
27633;DHT22;15046;50.930;13.334;2024-02-26T06:51:53;0.80;99.90
27633;DHT22;15046;50.930;13.334;2024-02-26T06:54:19;1.00;99.90
27633;DHT22;15046;50.930;13.334;2024-02-26T06:56:44;1.10;99.90
27633;DHT22;15046;50.930;13.334;2024-02-26T06:59:10;1.20;99.90
27633;DHT22;15046;50.930;13.334;2024-02-26T07:01:36;1.30;99.90
27633;DHT22;15046;50.930;13.334;2024-02-26T07:04:02;1.30;99.90
27633;DHT22;15046;50.930;13.334;2024-02-26T07:06:28;1.30;99.90
27633;DHT22;15046;50.930;13.334;2024-02-26T07:08:53;1.40;99.90
27633;DHT22;15046;50.930;13.334;2024-02-26T07:11:19;1.40;99.90
27633;DHT22;15046;50.930;13.334;2024-02-26T07:13:46;1.50;99.90
27633;DHT22;15046;50.930;13.334;2024-02-26T07:16:12;1.60;99.90
27633;DHT22;15046;50.930;13.334;2024-02-26T07:18:39;1.70;99.90
27633;DHT22;15046;50.930;13.334;2024-02-26T07:21:05;1.70;99.90
27633;DHT22;15046;50.930;13.334;2024-02-26T07:23:31;1.80;99.90
27633;DHT22;15046;50.930;13.334;2024-02-26T07:25:57;1.80;99.90
27633;DHT22;15046;50.930;13.334;2024-02-26T07:28:24;2.00;99.90
27633;DHT22;15046;50.930;13.334;2024-02-26T07:30:50;2.10;99.90
27633;DHT22;15046;50.930;13.334;2024-02-26T07:33:15;2.20;99.90
27633;DHT22;15046;50.930;13.334;2024-02-26T07:35:41;2.30;99.90
27633;DHT22;15046;50.930;13.334;2024-02-26T07:38:07;2.40;99.90
27633;DHT22;15046;50.930;13.334;2024-02-26T07:40:33;2.50;99.90
27633;DHT22;15046;50.930;13.334;2024-02-26T07:42:58;2.60;99.90
27633;DHT22;15046;50.930;13.334;2024-02-26T07:45:24;2.70;99.90
27633;DHT22;15046;50.930;13.334;2024-02-26T07:47:50;2.90;99.90
27633;DHT22;15046;50.930;13.334;2024-02-26T07:50:17;3.00;99.90
27633;DHT22;15046;50.930;13.334;2024-02-26T07:52:43;3.10;99.90
27633;DHT22;15046;50.930;13.334;2024-02-26T07:55:10;3.30;99.90
27633;DHT22;15046;50.930;13.334;2024-02-26T07:57:36;3.40;99.90
27633;DHT22;15046;50.930;13.334;2024-02-26T08:00:03;3.60;99.90
27633;DHT22;15046;50.930;13.334;2024-02-26T08:02:29;3.70;99.90
27633;DHT22;15046;50.930;13.334;2024-02-26T08:04:54;3.90;99.90
27633;DHT22;15046;50.930;13.334;2024-02-26T08:07:20;4.00;99.90
27633;DHT22;15046;50.930;13.334;2024-02-26T08:09:47;4.10;99.90
27633;DHT22;15046;50.930;13.334;2024-02-26T08:12:13;4.10;99.90
27633;DHT22;15046;50.930;13.334;2024-02-26T08:14:40;4.10;99.90
27633;DHT22;15046;50.930;13.334;2024-02-26T08:17:06;4.10;99.90
27633;DHT22;15046;50.930;13.334;2024-02-26T08:19:32;4.10;99.90
27633;DHT22;15046;50.930;13.334;2024-02-26T08:21:57;4.10;99.90
27633;DHT22;15046;50.930;13.334;2024-02-26T08:24:23;4.10;99.90
27633;DHT22;15046;50.930;13.334;2024-02-26T08:26:49;4.20;99.90
27633;DHT22;15046;50.930;13.334;2024-02-26T08:29:15;4.20;99.90
27633;DHT22;15046;50.930;13.334;2024-02-26T08:31:41;4.40;99.90
27633;DHT22;15046;50.930;13.334;2024-02-26T08:34:07;4.40;99.90
27633;DHT22;15046;50.930;13.334;2024-02-26T08:36:33;4.40;99.90
27633;DHT22;15046;50.930;13.334;2024-02-26T08:38:59;4.50;99.90
27633;DHT22;15046;50.930;13.334;2024-02-26T08:41:26;4.60;99.90
27633;DHT22;15046;50.930;13.334;2024-02-26T08:43:51;4.70;99.90
27633;DHT22;15046;50.930;13.334;2024-02-26T08:46:17;4.80;99.90
27633;DHT22;15046;50.930;13.334;2024-02-26T08:48:43;4.90;99.90
27633;DHT22;15046;50.930;13.334;2024-02-26T08:51:09;4.90;99.90
27633;DHT22;15046;50.930;13.334;2024-02-26T08:53:38;5.10;99.90
27633;DHT22;15046;50.930;13.334;2024-02-26T08:56:04;5.30;99.90
27633;DHT22;15046;50.930;13.334;2024-02-26T08:58:30;5.60;99.90
27633;DHT22;15046;50.930;13.334;2024-02-26T09:00:56;5.80;99.90
27633;DHT22;15046;50.930;13.334;2024-02-26T09:03:22;6.00;99.90
27633;DHT22;15046;50.930;13.334;2024-02-26T09:05:48;6.20;99.90
27633;DHT22;15046;50.930;13.334;2024-02-26T09:08:14;6.40;99.90
27633;DHT22;15046;50.930;13.334;2024-02-26T09:10:40;6.50;99.90
27633;DHT22;15046;50.930;13.334;2024-02-26T09:13:06;6.60;99.90
27633;DHT22;15046;50.930;13.334;2024-02-26T09:15:32;6.70;99.90
27633;DHT22;15046;50.930;13.334;2024-02-26T09:17:58;6.90;99.90
27633;DHT22;15046;50.930;13.334;2024-02-26T09:20:23;7.10;99.90
27633;DHT22;15046;50.930;13.334;2024-02-26T09:22:50;7.10;99.90
27633;DHT22;15046;50.930;13.334;2024-02-26T09:25:17;7.20;99.90
27633;DHT22;15046;50.930;13.334;2024-02-26T09:27:43;7.40;99.90
27633;DHT22;15046;50.930;13.334;2024-02-26T09:30:10;7.60;99.90
27633;DHT22;15046;50.930;13.334;2024-02-26T09:32:36;7.80;99.90
27633;DHT22;15046;50.930;13.334;2024-02-26T09:35:02;8.00;99.90
27633;DHT22;15046;50.930;13.334;2024-02-26T09:37:28;8.20;99.90
27633;DHT22;15046;50.930;13.334;2024-02-26T09:39:54;8.30;99.90
27633;DHT22;15046;50.930;13.334;2024-02-26T09:42:20;8.60;99.90
27633;DHT22;15046;50.930;13.334;2024-02-26T09:44:46;8.70;99.90
27633;DHT22;15046;50.930;13.334;2024-02-26T09:47:16;8.80;99.90
27633;DHT22;15046;50.930;13.334;2024-02-26T09:49:43;8.90;99.90
27633;DHT22;15046;50.930;13.334;2024-02-26T09:52:09;9.30;99.90
27633;DHT22;15046;50.930;13.334;2024-02-26T09:54:35;9.80;99.90
27633;DHT22;15046;50.930;13.334;2024-02-26T09:57:03;10.60;99.90
27633;DHT22;15046;50.930;13.334;2024-02-26T09:59:39;11.90;99.90
27633;DHT22;15046;50.930;13.334;2024-02-26T10:02:15;13.10;99.90
27633;DHT22;15046;50.930;13.334;2024-02-26T10:04:42;13.70;99.90
27633;DHT22;15046;50.930;13.334;2024-02-26T10:07:12;14.40;99.70
27633;DHT22;15046;50.930;13.334;2024-02-26T10:09:39;15.60;96.40
27633;DHT22;15046;50.930;13.334;2024-02-26T10:12:05;16.80;93.20
27633;DHT22;15046;50.930;13.334;2024-02-26T10:14:32;17.70;90.20
27633;DHT22;15046;50.930;13.334;2024-02-26T10:16:59;18.40;86.70
27633;DHT22;15046;50.930;13.334;2024-02-26T10:19:30;19.00;83.70
27633;DHT22;15046;50.930;13.334;2024-02-26T10:22:00;19.90;80.80
27633;DHT22;15046;50.930;13.334;2024-02-26T10:24:26;20.20;77.70
27633;DHT22;15046;50.930;13.334;2024-02-26T10:26:54;20.40;77.60
27633;DHT22;15046;50.930;13.334;2024-02-26T10:29:20;20.60;75.90
27633;DHT22;15046;50.930;13.334;2024-02-26T10:31:46;20.70;74.00
27633;DHT22;15046;50.930;13.334;2024-02-26T10:34:12;20.70;72.90
27633;DHT22;15046;50.930;13.334;2024-02-26T10:36:38;20.70;71.90
27633;DHT22;15046;50.930;13.334;2024-02-26T10:39:07;20.80;71.00
27633;DHT22;15046;50.930;13.334;2024-02-26T10:41:36;20.60;70.30
27633;DHT22;15046;50.930;13.334;2024-02-26T10:44:02;20.50;70.10
27633;DHT22;15046;50.930;13.334;2024-02-26T10:46:27;20.50;69.50
27633;DHT22;15046;50.930;13.334;2024-02-26T10:48:54;20.50;68.80
27633;DHT22;15046;50.930;13.334;2024-02-26T10:51:27;20.50;68.20
27633;DHT22;15046;50.930;13.334;2024-02-26T10:53:58;20.20;68.20
27633;DHT22;15046;50.930;13.334;2024-02-26T10:56:28;19.80;68.50
27633;DHT22;15046;50.930;13.334;2024-02-26T10:58:58;19.80;69.00
27633;DHT22;15046;50.930;13.334;2024-02-26T11:01:25;20.00;68.60
27633;DHT22;15046;50.930;13.334;2024-02-26T11:03:55;19.90;68.30
27633;DHT22;15046;50.930;13.334;2024-02-26T11:06:22;19.40;68.30
27633;DHT22;15046;50.930;13.334;2024-02-26T11:08:51;18.90;68.80
27633;DHT22;15046;50.930;13.334;2024-02-26T11:11:18;18.50;69.40
27633;DHT22;15046;50.930;13.334;2024-02-26T11:13:46;18.30;70.20
27633;DHT22;15046;50.930;13.334;2024-02-26T11:16:20;18.20;70.70
27633;DHT22;15046;50.930;13.334;2024-02-26T11:18:46;18.50;70.20
27633;DHT22;15046;50.930;13.334;2024-02-26T11:21:15;18.40;70.20
27633;DHT22;15046;50.930;13.334;2024-02-26T11:23:42;18.20;70.60
27633;DHT22;15046;50.930;13.334;2024-02-26T11:26:10;18.00;70.40
27633;DHT22;15046;50.930;13.334;2024-02-26T11:28:37;17.80;70.60
27633;DHT22;15046;50.930;13.334;2024-02-26T11:31:04;17.80;70.50
27633;DHT22;15046;50.930;13.334;2024-02-26T11:33:31;17.80;70.40
27633;DHT22;15046;50.930;13.334;2024-02-26T11:35:57;17.80;69.90
27633;DHT22;15046;50.930;13.334;2024-02-26T11:38:26;17.80;69.80
27633;DHT22;15046;50.930;13.334;2024-02-26T11:40:53;17.70;69.40
27633;DHT22;15046;50.930;13.334;2024-02-26T11:43:23;17.30;69.60
27633;DHT22;15046;50.930;13.334;2024-02-26T11:46:46;17.00;69.80
27633;DHT22;15046;50.930;13.334;2024-02-26T11:49:29;16.80;69.80
27633;DHT22;15046;50.930;13.334;2024-02-26T11:51:56;16.80;70.20
27633;DHT22;15046;50.930;13.334;2024-02-26T11:54:56;16.80;70.20
27633;DHT22;15046;50.930;13.334;2024-02-26T11:57:51;16.50;70.20
27633;DHT22;15046;50.930;13.334;2024-02-26T12:00:17;16.00;70.90
27633;DHT22;15046;50.930;13.334;2024-02-26T12:02:50;15.60;71.90
27633;DHT22;15046;50.930;13.334;2024-02-26T12:05:23;15.00;72.80
27633;DHT22;15046;50.930;13.334;2024-02-26T12:07:53;14.60;73.70
27633;DHT22;15046;50.930;13.334;2024-02-26T12:10:30;14.40;74.30
27633;DHT22;15046;50.930;13.334;2024-02-26T12:13:00;14.20;74.60
27633;DHT22;15046;50.930;13.334;2024-02-26T12:15:38;14.20;74.80
27633;DHT22;15046;50.930;13.334;2024-02-26T12:18:06;14.30;75.10
27633;DHT22;15046;50.930;13.334;2024-02-26T12:20:33;14.30;75.50
27633;DHT22;15046;50.930;13.334;2024-02-26T12:23:02;14.40;75.70
27633;DHT22;15046;50.930;13.334;2024-02-26T12:25:30;14.40;75.60
27633;DHT22;15046;50.930;13.334;2024-02-26T12:27:57;14.40;76.10
27633;DHT22;15046;50.930;13.334;2024-02-26T12:30:23;14.40;76.40
27633;DHT22;15046;50.930;13.334;2024-02-26T12:32:52;14.30;76.70
27633;DHT22;15046;50.930;13.334;2024-02-26T12:35:18;14.10;76.90
27633;DHT22;15046;50.930;13.334;2024-02-26T12:37:44;14.00;77.10
27633;DHT22;15046;50.930;13.334;2024-02-26T12:40:11;13.90;77.10
27633;DHT22;15046;50.930;13.334;2024-02-26T12:42:37;13.70;77.60
27633;DHT22;15046;50.930;13.334;2024-02-26T12:45:08;13.60;77.90
27633;DHT22;15046;50.930;13.334;2024-02-26T12:47:38;13.50;78.20
27633;DHT22;15046;50.930;13.334;2024-02-26T12:50:05;13.50;78.50
27633;DHT22;15046;50.930;13.334;2024-02-26T12:52:35;13.40;78.40
27633;DHT22;15046;50.930;13.334;2024-02-26T12:55:02;13.40;78.80
27633;DHT22;15046;50.930;13.334;2024-02-26T12:57:34;13.30;79.00
27633;DHT22;15046;50.930;13.334;2024-02-26T13:00:01;13.40;79.20
27633;DHT22;15046;50.930;13.334;2024-02-26T13:02:29;13.50;79.40
27633;DHT22;15046;50.930;13.334;2024-02-26T13:04:55;13.40;79.20
27633;DHT22;15046;50.930;13.334;2024-02-26T13:07:22;13.40;79.20
27633;DHT22;15046;50.930;13.334;2024-02-26T13:09:48;13.30;79.50
27633;DHT22;15046;50.930;13.334;2024-02-26T13:12:14;13.10;79.80
27633;DHT22;15046;50.930;13.334;2024-02-26T13:14:40;13.00;80.10
27633;DHT22;15046;50.930;13.334;2024-02-26T13:17:06;12.80;80.70
27633;DHT22;15046;50.930;13.334;2024-02-26T13:19:32;12.60;81.20
27633;DHT22;15046;50.930;13.334;2024-02-26T13:22:05;12.50;81.60
27633;DHT22;15046;50.930;13.334;2024-02-26T13:24:32;12.30;81.90
27633;DHT22;15046;50.930;13.334;2024-02-26T13:26:58;12.10;82.10
27633;DHT22;15046;50.930;13.334;2024-02-26T13:29:24;12.00;82.40
27633;DHT22;15046;50.930;13.334;2024-02-26T13:31:55;11.90;82.70
27633;DHT22;15046;50.930;13.334;2024-02-26T13:34:26;11.80;83.10
27633;DHT22;15046;50.930;13.334;2024-02-26T13:36:53;11.80;83.30
27633;DHT22;15046;50.930;13.334;2024-02-26T13:39:27;11.70;83.30
27633;DHT22;15046;50.930;13.334;2024-02-26T13:41:53;11.50;83.30
27633;DHT22;15046;50.930;13.334;2024-02-26T13:44:21;11.40;83.40
27633;DHT22;15046;50.930;13.334;2024-02-26T13:46:47;11.40;83.70
27633;DHT22;15046;50.930;13.334;2024-02-26T13:49:13;11.30;83.80
27633;DHT22;15046;50.930;13.334;2024-02-26T13:51:39;11.30;84.00
27633;DHT22;15046;50.930;13.334;2024-02-26T13:54:05;11.20;84.10
27633;DHT22;15046;50.930;13.334;2024-02-26T13:56:31;11.20;84.20
27633;DHT22;15046;50.930;13.334;2024-02-26T13:58:58;11.20;84.60
27633;DHT22;15046;50.930;13.334;2024-02-26T14:01:24;11.10;84.60
27633;DHT22;15046;50.930;13.334;2024-02-26T14:03:50;11.10;84.80
27633;DHT22;15046;50.930;13.334;2024-02-26T14:06:16;11.00;85.00
27633;DHT22;15046;50.930;13.334;2024-02-26T14:08:42;11.00;85.10
27633;DHT22;15046;50.930;13.334;2024-02-26T14:11:08;11.00;85.40
27633;DHT22;15046;50.930;13.334;2024-02-26T14:13:34;10.90;85.30
27633;DHT22;15046;50.930;13.334;2024-02-26T14:15:59;10.90;85.10
27633;DHT22;15046;50.930;13.334;2024-02-26T14:18:25;10.80;84.80
27633;DHT22;15046;50.930;13.334;2024-02-26T14:20:52;10.70;84.50
27633;DHT22;15046;50.930;13.334;2024-02-26T14:23:18;10.70;84.40
27633;DHT22;15046;50.930;13.334;2024-02-26T14:25:44;10.70;84.50
27633;DHT22;15046;50.930;13.334;2024-02-26T14:28:09;10.70;84.80
27633;DHT22;15046;50.930;13.334;2024-02-26T14:30:35;10.70;84.90
27633;DHT22;15046;50.930;13.334;2024-02-26T14:33:01;10.70;85.00
27633;DHT22;15046;50.930;13.334;2024-02-26T14:35:28;10.80;85.00
27633;DHT22;15046;50.930;13.334;2024-02-26T14:37:54;10.80;85.00
27633;DHT22;15046;50.930;13.334;2024-02-26T14:40:20;10.80;84.80
27633;DHT22;15046;50.930;13.334;2024-02-26T14:42:46;10.90;84.90
27633;DHT22;15046;50.930;13.334;2024-02-26T14:45:12;10.90;84.90
27633;DHT22;15046;50.930;13.334;2024-02-26T14:47:38;10.90;84.90
27633;DHT22;15046;50.930;13.334;2024-02-26T14:50:04;10.90;84.90
27633;DHT22;15046;50.930;13.334;2024-02-26T14:52:31;10.90;85.00
27633;DHT22;15046;50.930;13.334;2024-02-26T14:54:56;10.80;85.00
27633;DHT22;15046;50.930;13.334;2024-02-26T14:57:24;10.90;85.00
27633;DHT22;15046;50.930;13.334;2024-02-26T14:59:50;10.80;85.00
27633;DHT22;15046;50.930;13.334;2024-02-26T15:02:16;10.80;85.00
27633;DHT22;15046;50.930;13.334;2024-02-26T15:04:43;10.80;85.00
27633;DHT22;15046;50.930;13.334;2024-02-26T15:07:10;10.80;85.00
27633;DHT22;15046;50.930;13.334;2024-02-26T15:09:37;10.70;85.00
27633;DHT22;15046;50.930;13.334;2024-02-26T15:12:04;10.70;85.00
27633;DHT22;15046;50.930;13.334;2024-02-26T15:14:32;10.70;85.10
27633;DHT22;15046;50.930;13.334;2024-02-26T15:16:58;10.70;85.80
27633;DHT22;15046;50.930;13.334;2024-02-26T15:19:24;10.60;85.10
27633;DHT22;15046;50.930;13.334;2024-02-26T15:21:49;10.60;85.80
27633;DHT22;15046;50.930;13.334;2024-02-26T15:24:15;10.50;85.20